sensor_id;sensor_type;location;lat;lon;timestamp;pressure;altitude;pressure_sealevel;temperature;humidity
50710;BME280;37033;49.994;21.992;2022-07-29T00:00:34;99619.25;;;16.28;72.61
50710;BME280;37033;49.994;21.992;2022-07-29T00:03:24;99621.79;;;16.29;72.68
50710;BME280;37033;49.994;21.992;2022-07-29T00:06:14;99623.20;;;16.30;72.66
50710;BME280;37033;49.994;21.992;2022-07-29T00:09:06;99624.41;;;16.33;72.68
50710;BME280;37033;49.994;21.992;2022-07-29T00:11:59;99616.74;;;16.35;72.77
50710;BME280;37033;49.994;21.992;2022-07-29T00:14:49;99617.55;;;16.36;72.73
50710;BME280;37033;49.994;21.992;2022-07-29T00:17:39;99614.71;;;16.37;72.66
50710;BME280;37033;49.994;21.992;2022-07-29T00:20:30;99612.23;;;16.36;72.77
50710;BME280;37033;49.994;21.992;2022-07-29T00:23:20;99611.53;;;16.38;73.03
50710;BME280;37033;49.994;21.992;2022-07-29T00:26:10;99610.48;;;16.39;73.11
50710;BME280;37033;49.994;21.992;2022-07-29T00:29:02;99616.95;;;16.40;73.14
50710;BME280;37033;49.994;21.992;2022-07-29T00:31:53;99618.55;;;16.40;73.28
50710;BME280;37033;49.994;21.992;2022-07-29T00:34:43;99621.29;;;16.40;73.20
50710;BME280;37033;49.994;21.992;2022-07-29T00:37:51;99621.30;;;16.38;73.37
50710;BME280;37033;49.994;21.992;2022-07-29T00:40:42;99620.84;;;16.37;73.35
50710;BME280;37033;49.994;21.992;2022-07-29T00:43:32;99621.13;;;16.37;73.44
50710;BME280;37033;49.994;21.992;2022-07-29T00:46:22;99616.73;;;16.37;73.46
50710;BME280;37033;49.994;21.992;2022-07-29T00:49:13;99616.95;;;16.36;73.44
50710;BME280;37033;49.994;21.992;2022-07-29T00:52:03;99620.73;;;16.36;73.47
50710;BME280;37033;49.994;21.992;2022-07-29T00:54:54;99616.56;;;16.36;73.14
50710;BME280;37033;49.994;21.992;2022-07-29T00:57:46;99616.83;;;16.36;73.18
50710;BME280;37033;49.994;21.992;2022-07-29T01:00:36;99613.43;;;16.36;73.16
50710;BME280;37033;49.994;21.992;2022-07-29T01:03:29;99617.17;;;16.35;73.20
50710;BME280;37033;49.994;21.992;2022-07-29T01:06:20;99618.60;;;16.35;73.11
50710;BME280;37033;49.994;21.992;2022-07-29T01:09:10;99614.91;;;16.35;72.87
50710;BME280;37033;49.994;21.992;2022-07-29T01:12:03;99616.95;;;16.34;72.81
50710;BME280;37033;49.994;21.992;2022-07-29T01:14:55;99620.19;;;16.33;72.89
50710;BME280;37033;49.994;21.992;2022-07-29T01:17:48;99618.39;;;16.32;72.87
50710;BME280;37033;49.994;21.992;2022-07-29T01:20:53;99617.00;;;16.32;72.67
50710;BME280;37033;49.994;21.992;2022-07-29T01:23:57;99614.81;;;16.31;72.76
50710;BME280;37033;49.994;21.992;2022-07-29T01:26:54;99610.52;;;16.31;72.63
50710;BME280;37033;49.994;21.992;2022-07-29T01:29:51;99611.41;;;16.29;72.25
50710;BME280;37033;49.994;21.992;2022-07-29T01:32:44;99607.85;;;16.27;72.14
50710;BME280;37033;49.994;21.992;2022-07-29T01:35:39;99602.47;;;16.26;71.95
50710;BME280;37033;49.994;21.992;2022-07-29T01:38:31;99601.14;;;16.24;72.05
50710;BME280;37033;49.994;21.992;2022-07-29T01:41:22;99598.68;;;16.22;72.27
50710;BME280;37033;49.994;21.992;2022-07-29T01:44:17;99602.69;;;16.19;72.26
50710;BME280;37033;49.994;21.992;2022-07-29T01:47:13;99605.64;;;16.15;72.43
50710;BME280;37033;49.994;21.992;2022-07-29T01:50:10;99604.88;;;16.10;72.64
50710;BME280;37033;49.994;21.992;2022-07-29T01:53:06;99606.73;;;16.06;72.74
50710;BME280;37033;49.994;21.992;2022-07-29T01:55:59;99610.79;;;16.03;72.97
50710;BME280;37033;49.994;21.992;2022-07-29T01:58:50;99610.56;;;15.98;73.11
50710;BME280;37033;49.994;21.992;2022-07-29T02:01:44;99605.50;;;15.94;73.23
50710;BME280;37033;49.994;21.992;2022-07-29T02:04:37;99598.15;;;15.89;73.37
50710;BME280;37033;49.994;21.992;2022-07-29T02:07:30;99605.83;;;15.85;73.50
50710;BME280;37033;49.994;21.992;2022-07-29T02:10:26;99608.01;;;15.81;73.44
50710;BME280;37033;49.994;21.992;2022-07-29T02:13:16;99606.35;;;15.76;73.62
50710;BME280;37033;49.994;21.992;2022-07-29T02:16:08;99608.27;;;15.70;73.42
50710;BME280;37033;49.994;21.992;2022-07-29T02:19:01;99608.10;;;15.65;73.63
50710;BME280;37033;49.994;21.992;2022-07-29T02:21:53;99605.98;;;15.59;73.74
50710;BME280;37033;49.994;21.992;2022-07-29T02:24:46;99601.48;;;15.55;73.86
50710;BME280;37033;49.994;21.992;2022-07-29T02:27:39;99595.72;;;15.53;73.92
50710;BME280;37033;49.994;21.992;2022-07-29T02:30:30;99594.17;;;15.51;74.07
50710;BME280;37033;49.994;21.992;2022-07-29T02:33:22;99598.23;;;15.49;74.13
50710;BME280;37033;49.994;21.992;2022-07-29T02:36:13;99602.77;;;15.46;74.13
50710;BME280;37033;49.994;21.992;2022-07-29T02:39:04;99605.95;;;15.44;74.22
50710;BME280;37033;49.994;21.992;2022-07-29T02:41:58;99599.52;;;15.39;74.08
50710;BME280;37033;49.994;21.992;2022-07-29T02:44:51;99592.91;;;15.32;74.13
50710;BME280;37033;49.994;21.992;2022-07-29T02:47:46;99594.14;;;15.24;74.27
50710;BME280;37033;49.994;21.992;2022-07-29T02:50:41;99593.45;;;15.20;74.27
50710;BME280;37033;49.994;21.992;2022-07-29T02:53:34;99588.63;;;15.16;74.32
50710;BME280;37033;49.994;21.992;2022-07-29T02:56:28;99591.17;;;15.13;74.23
50710;BME280;37033;49.994;21.992;2022-07-29T02:59:25;99589.04;;;15.09;74.33
50710;BME280;37033;49.994;21.992;2022-07-29T03:02:17;99581.69;;;15.09;74.27
50710;BME280;37033;49.994;21.992;2022-07-29T03:05:10;99576.92;;;15.08;74.28
50710;BME280;37033;49.994;21.992;2022-07-29T03:08:02;99578.06;;;15.06;74.28
50710;BME280;37033;49.994;21.992;2022-07-29T03:10:54;99580.69;;;15.04;74.11
50710;BME280;37033;49.994;21.992;2022-07-29T03:13:45;99581.41;;;15.05;74.24
50710;BME280;37033;49.994;21.992;2022-07-29T03:16:36;99577.61;;;15.04;74.18
50710;BME280;37033;49.994;21.992;2022-07-29T03:19:27;99577.17;;;15.03;74.25
50710;BME280;37033;49.994;21.992;2022-07-29T03:22:18;99577.01;;;15.03;74.25
50710;BME280;37033;49.994;21.992;2022-07-29T03:25:12;99576.11;;;14.99;74.26
50710;BME280;37033;49.994;21.992;2022-07-29T03:28:03;99571.77;;;14.95;74.37
50710;BME280;37033;49.994;21.992;2022-07-29T03:30:53;99571.09;;;14.93;74.49
50710;BME280;37033;49.994;21.992;2022-07-29T03:33:44;99568.52;;;14.91;74.60
50710;BME280;37033;49.994;21.992;2022-07-29T03:36:34;99577.39;;;14.91;74.70
50710;BME280;37033;49.994;21.992;2022-07-29T03:39:27;99570.70;;;14.90;74.79
50710;BME280;37033;49.994;21.992;2022-07-29T03:42:21;99571.20;;;14.90;74.84
50710;BME280;37033;49.994;21.992;2022-07-29T03:45:15;99571.64;;;14.91;74.98
50710;BME280;37033;49.994;21.992;2022-07-29T03:48:11;99572.03;;;14.93;75.04
50710;BME280;37033;49.994;21.992;2022-07-29T03:51:03;99575.01;;;14.96;75.17
50710;BME280;37033;49.994;21.992;2022-07-29T03:53:53;99579.45;;;14.98;75.23
50710;BME280;37033;49.994;21.992;2022-07-29T03:56:45;99583.73;;;15.03;75.14
50710;BME280;37033;49.994;21.992;2022-07-29T03:59:36;99583.88;;;15.07;74.73
50710;BME280;37033;49.994;21.992;2022-07-29T04:02:27;99585.49;;;15.13;74.57
50710;BME280;37033;49.994;21.992;2022-07-29T04:05:19;99583.98;;;15.20;74.69
50710;BME280;37033;49.994;21.992;2022-07-29T04:08:10;99580.30;;;15.28;74.33
50710;BME280;37033;49.994;21.992;2022-07-29T04:11:00;99583.08;;;15.36;73.98
50710;BME280;37033;49.994;21.992;2022-07-29T04:13:51;99586.05;;;15.43;73.60
50710;BME280;37033;49.994;21.992;2022-07-29T04:16:41;99584.77;;;15.50;73.18
50710;BME280;37033;49.994;21.992;2022-07-29T04:19:32;99580.27;;;15.54;72.98
50710;BME280;37033;49.994;21.992;2022-07-29T04:22:23;99573.00;;;15.57;72.53
50710;BME280;37033;49.994;21.992;2022-07-29T04:25:13;99578.10;;;15.62;72.30
50710;BME280;37033;49.994;21.992;2022-07-29T04:28:04;99574.83;;;15.67;72.10
50710;BME280;37033;49.994;21.992;2022-07-29T04:30:55;99571.68;;;15.72;71.97
50710;BME280;37033;49.994;21.992;2022-07-29T04:33:45;99574.29;;;15.77;71.67
50710;BME280;37033;49.994;21.992;2022-07-29T04:36:35;99574.62;;;15.81;71.47
50710;BME280;37033;49.994;21.992;2022-07-29T04:39:26;99570.62;;;15.83;71.22
50710;BME280;37033;49.994;21.992;2022-07-29T04:42:16;99571.16;;;15.84;71.09
50710;BME280;37033;49.994;21.992;2022-07-29T04:45:08;99572.98;;;15.85;70.93
50710;BME280;37033;49.994;21.992;2022-07-29T04:47:59;99568.87;;;15.87;70.84
50710;BME280;37033;49.994;21.992;2022-07-29T04:50:49;99569.70;;;15.96;70.85
50710;BME280;37033;49.994;21.992;2022-07-29T04:53:39;99565.17;;;16.02;70.49
50710;BME280;37033;49.994;21.992;2022-07-29T04:56:29;99566.04;;;16.07;70.42
50710;BME280;37033;49.994;21.992;2022-07-29T04:59:20;99571.86;;;16.17;70.24
50710;BME280;37033;49.994;21.992;2022-07-29T05:02:11;99581.52;;;16.29;70.08
50710;BME280;37033;49.994;21.992;2022-07-29T05:05:01;99587.48;;;16.46;70.05
50710;BME280;37033;49.994;21.992;2022-07-29T05:07:51;99594.27;;;16.64;69.68
50710;BME280;37033;49.994;21.992;2022-07-29T05:10:42;99589.59;;;16.83;69.37
50710;BME280;37033;49.994;21.992;2022-07-29T05:13:32;99592.58;;;17.00;68.62
50710;BME280;37033;49.994;21.992;2022-07-29T05:16:22;99590.91;;;17.07;67.39
50710;BME280;37033;49.994;21.992;2022-07-29T05:19:12;99590.63;;;17.11;67.26
50710;BME280;37033;49.994;21.992;2022-07-29T05:22:03;99594.73;;;17.18;66.88
50710;BME280;37033;49.994;21.992;2022-07-29T05:24:54;99596.20;;;17.32;66.95
50710;BME280;37033;49.994;21.992;2022-07-29T05:27:44;99594.20;;;17.51;66.64
50710;BME280;37033;49.994;21.992;2022-07-29T05:30:34;99586.34;;;17.71;65.28
50710;BME280;37033;49.994;21.992;2022-07-29T05:33:25;99585.55;;;17.87;64.83
50710;BME280;37033;49.994;21.992;2022-07-29T05:36:15;99585.91;;;18.07;64.70
50710;BME280;37033;49.994;21.992;2022-07-29T05:39:05;99585.17;;;18.17;63.47
50710;BME280;37033;49.994;21.992;2022-07-29T05:41:55;99586.39;;;18.23;63.60
50710;BME280;37033;49.994;21.992;2022-07-29T05:44:46;99589.50;;;18.28;63.05
50710;BME280;37033;49.994;21.992;2022-07-29T05:47:37;99587.34;;;18.35;63.45
50710;BME280;37033;49.994;21.992;2022-07-29T05:50:27;99583.88;;;18.49;62.96
50710;BME280;37033;49.994;21.992;2022-07-29T05:53:18;99583.65;;;18.61;62.03
50710;BME280;37033;49.994;21.992;2022-07-29T05:56:09;99578.15;;;18.70;61.96
50710;BME280;37033;49.994;21.992;2022-07-29T05:58:59;99577.73;;;18.84;60.91
50710;BME280;37033;49.994;21.992;2022-07-29T06:01:49;99579.08;;;18.91;60.41
50710;BME280;37033;49.994;21.992;2022-07-29T06:04:40;99583.48;;;19.06;60.89
50710;BME280;37033;49.994;21.992;2022-07-29T06:07:30;99580.64;;;19.20;60.02
50710;BME280;37033;49.994;21.992;2022-07-29T06:10:21;99579.88;;;19.36;60.19
50710;BME280;37033;49.994;21.992;2022-07-29T06:13:11;99572.91;;;19.54;59.68
50710;BME280;37033;49.994;21.992;2022-07-29T06:16:05;99566.50;;;19.66;58.58
50710;BME280;37033;49.994;21.992;2022-07-29T06:18:55;99558.94;;;19.73;57.78
50710;BME280;37033;49.994;21.992;2022-07-29T06:21:46;99553.27;;;19.81;57.93
50710;BME280;37033;49.994;21.992;2022-07-29T06:24:37;99552.68;;;19.93;58.05
50710;BME280;37033;49.994;21.992;2022-07-29T06:27:30;99553.66;;;20.14;58.28
50710;BME280;37033;49.994;21.992;2022-07-29T06:30:20;99552.37;;;20.36;57.60
50710;BME280;37033;49.994;21.992;2022-07-29T06:33:14;99556.12;;;20.55;56.73
50710;BME280;37033;49.994;21.992;2022-07-29T06:36:07;99559.85;;;20.70;55.55
50710;BME280;37033;49.994;21.992;2022-07-29T06:38:57;99567.30;;;20.77;55.04
50710;BME280;37033;49.994;21.992;2022-07-29T06:41:49;99571.83;;;20.89;53.61
50710;BME280;37033;49.994;21.992;2022-07-29T06:44:40;99569.91;;;20.94;53.90
50710;BME280;37033;49.994;21.992;2022-07-29T06:47:30;99565.14;;;21.05;54.18
50710;BME280;37033;49.994;21.992;2022-07-29T06:50:20;99565.48;;;21.16;53.84
50710;BME280;37033;49.994;21.992;2022-07-29T06:53:10;99565.04;;;21.30;53.58
50710;BME280;37033;49.994;21.992;2022-07-29T06:56:01;99560.52;;;21.44;53.63
50710;BME280;37033;49.994;21.992;2022-07-29T06:58:52;99562.12;;;21.60;53.46
50710;BME280;37033;49.994;21.992;2022-07-29T07:01:43;99557.45;;;21.77;52.91
50710;BME280;37033;49.994;21.992;2022-07-29T07:04:33;99558.27;;;21.95;52.57
50710;BME280;37033;49.994;21.992;2022-07-29T07:07:24;99551.10;;;22.14;51.42
50710;BME280;37033;49.994;21.992;2022-07-29T07:10:14;99549.56;;;22.26;51.12
50710;BME280;37033;49.994;21.992;2022-07-29T07:13:05;99545.05;;;22.40;51.33
50710;BME280;37033;49.994;21.992;2022-07-29T07:15:55;99541.56;;;22.51;50.91
50710;BME280;37033;49.994;21.992;2022-07-29T07:18:46;99551.89;;;22.60;50.75
50710;BME280;37033;49.994;21.992;2022-07-29T07:21:36;99554.33;;;22.71;50.90
50710;BME280;37033;49.994;21.992;2022-07-29T07:24:27;99565.00;;;22.84;50.47
50710;BME280;37033;49.994;21.992;2022-07-29T07:27:17;99564.11;;;22.92;50.90
50710;BME280;37033;49.994;21.992;2022-07-29T07:30:11;99558.75;;;23.20;50.50
50710;BME280;37033;49.994;21.992;2022-07-29T07:33:01;99555.33;;;23.31;49.53
50710;BME280;37033;49.994;21.992;2022-07-29T07:35:52;99554.41;;;23.41;49.40
50710;BME280;37033;49.994;21.992;2022-07-29T07:38:43;99548.09;;;23.54;49.35
50710;BME280;37033;49.994;21.992;2022-07-29T07:41:33;99545.81;;;23.63;48.94
50710;BME280;37033;49.994;21.992;2022-07-29T07:44:23;99544.17;;;23.75;49.75
50710;BME280;37033;49.994;21.992;2022-07-29T07:47:14;99545.76;;;23.92;48.58
50710;BME280;37033;49.994;21.992;2022-07-29T07:50:11;99550.88;;;24.04;48.41
50710;BME280;37033;49.994;21.992;2022-07-29T07:53:01;99552.38;;;24.14;48.69
50710;BME280;37033;49.994;21.992;2022-07-29T07:55:52;99553.88;;;24.27;48.38
50710;BME280;37033;49.994;21.992;2022-07-29T07:58:42;99554.80;;;24.33;47.99
50710;BME280;37033;49.994;21.992;2022-07-29T08:01:32;99555.55;;;24.41;48.05
50710;BME280;37033;49.994;21.992;2022-07-29T08:04:22;99556.91;;;24.52;47.97
50710;BME280;37033;49.994;21.992;2022-07-29T08:07:13;99553.08;;;24.60;47.31
50710;BME280;37033;49.994;21.992;2022-07-29T08:10:05;99550.79;;;24.59;46.90
50710;BME280;37033;49.994;21.992;2022-07-29T08:12:55;99548.27;;;24.69;47.58
50710;BME280;37033;49.994;21.992;2022-07-29T08:15:46;99547.48;;;24.79;47.11
50710;BME280;37033;49.994;21.992;2022-07-29T08:18:47;99546.33;;;24.88;46.62
50710;BME280;37033;49.994;21.992;2022-07-29T08:21:37;99545.08;;;24.99;46.20
50710;BME280;37033;49.994;21.992;2022-07-29T08:24:28;99551.53;;;24.99;45.56
50710;BME280;37033;49.994;21.992;2022-07-29T08:27:41;99554.52;;;25.04;45.34
50710;BME280;37033;49.994;21.992;2022-07-29T08:30:31;99554.04;;;25.02;45.60
50710;BME280;37033;49.994;21.992;2022-07-29T08:33:22;99549.27;;;25.11;45.95
50710;BME280;37033;49.994;21.992;2022-07-29T08:36:13;99548.99;;;25.22;45.70
50710;BME280;37033;49.994;21.992;2022-07-29T08:39:04;99551.89;;;25.18;45.52
50710;BME280;37033;49.994;21.992;2022-07-29T08:41:55;99551.31;;;25.19;46.00
50710;BME280;37033;49.994;21.992;2022-07-29T08:44:47;99553.30;;;25.23;45.65
50710;BME280;37033;49.994;21.992;2022-07-29T08:47:40;99554.45;;;25.22;46.06
50710;BME280;37033;49.994;21.992;2022-07-29T08:50:33;99553.66;;;25.30;46.08
50710;BME280;37033;49.994;21.992;2022-07-29T08:53:28;99550.13;;;25.35;45.91
50710;BME280;37033;49.994;21.992;2022-07-29T08:56:20;99549.55;;;25.49;45.51
50710;BME280;37033;49.994;21.992;2022-07-29T08:59:11;99542.22;;;25.58;45.37
50710;BME280;37033;49.994;21.992;2022-07-29T09:02:03;99545.03;;;25.69;45.37
50710;BME280;37033;49.994;21.992;2022-07-29T09:04:54;99541.04;;;25.84;44.64
50710;BME280;37033;49.994;21.992;2022-07-29T09:07:46;99539.73;;;25.89;44.78
50710;BME280;37033;49.994;21.992;2022-07-29T09:10:38;99539.77;;;25.98;45.10
50710;BME280;37033;49.994;21.992;2022-07-29T09:13:28;99541.22;;;26.01;44.46
50710;BME280;37033;49.994;21.992;2022-07-29T09:16:19;99537.16;;;26.05;45.03
50710;BME280;37033;49.994;21.992;2022-07-29T09:19:21;99533.92;;;26.14;44.83
50710;BME280;37033;49.994;21.992;2022-07-29T09:22:11;99534.86;;;26.05;43.98
50710;BME280;37033;49.994;21.992;2022-07-29T09:25:01;99530.87;;;25.92;43.66
50710;BME280;37033;49.994;21.992;2022-07-29T09:27:52;99525.86;;;25.80;44.28
50710;BME280;37033;49.994;21.992;2022-07-29T09:30:53;99522.16;;;25.78;44.49
50710;BME280;37033;49.994;21.992;2022-07-29T09:33:44;99520.95;;;25.85;44.13
50710;BME280;37033;49.994;21.992;2022-07-29T09:36:40;99517.11;;;25.86;43.75
50710;BME280;37033;49.994;21.992;2022-07-29T09:39:32;99509.89;;;25.95;44.04
50710;BME280;37033;49.994;21.992;2022-07-29T09:42:30;99509.95;;;26.13;44.43
50710;BME280;37033;49.994;21.992;2022-07-29T09:45:30;99509.59;;;26.35;43.53
50710;BME280;37033;49.994;21.992;2022-07-29T09:48:22;99512.02;;;26.50;43.31
50710;BME280;37033;49.994;21.992;2022-07-29T09:51:22;99505.73;;;26.61;43.35
50710;BME280;37033;49.994;21.992;2022-07-29T09:54:26;99505.94;;;26.67;43.04
50710;BME280;37033;49.994;21.992;2022-07-29T09:57:27;99500.44;;;26.77;42.99
50710;BME280;37033;49.994;21.992;2022-07-29T10:00:19;99500.02;;;26.89;43.60
50710;BME280;37033;49.994;21.992;2022-07-29T10:03:11;99496.32;;;27.17;43.54
50710;BME280;37033;49.994;21.992;2022-07-29T10:06:10;99497.91;;;27.42;42.94
50710;BME280;37033;49.994;21.992;2022-07-29T10:09:10;99499.73;;;27.44;42.80
50710;BME280;37033;49.994;21.992;2022-07-29T10:12:09;99495.02;;;27.49;42.48
50710;BME280;37033;49.994;21.992;2022-07-29T10:15:03;99491.28;;;27.42;41.53
50710;BME280;37033;49.994;21.992;2022-07-29T10:17:55;99487.08;;;27.29;41.49
50710;BME280;37033;49.994;21.992;2022-07-29T10:20:46;99491.92;;;27.22;41.81
50710;BME280;37033;49.994;21.992;2022-07-29T10:23:38;99494.55;;;27.22;41.98
50710;BME280;37033;49.994;21.992;2022-07-29T10:26:29;99494.59;;;27.27;41.87
50710;BME280;37033;49.994;21.992;2022-07-29T10:29:19;99493.68;;;27.40;41.93
50710;BME280;37033;49.994;21.992;2022-07-29T10:32:25;99492.95;;;27.60;41.68
50710;BME280;37033;49.994;21.992;2022-07-29T10:35:33;99495.98;;;27.74;41.51
50710;BME280;37033;49.994;21.992;2022-07-29T10:38:41;99486.98;;;27.88;40.96
50710;BME280;37033;49.994;21.992;2022-07-29T10:41:47;99484.71;;;27.97;40.97
50710;BME280;37033;49.994;21.992;2022-07-29T10:44:43;99482.02;;;28.06;40.71
50710;BME280;37033;49.994;21.992;2022-07-29T10:47:34;99480.94;;;28.20;41.02
50710;BME280;37033;49.994;21.992;2022-07-29T10:50:25;99483.65;;;28.26;40.62
50710;BME280;37033;49.994;21.992;2022-07-29T10:53:16;99485.56;;;28.38;40.78
50710;BME280;37033;49.994;21.992;2022-07-29T10:56:25;99481.36;;;28.53;40.73
50710;BME280;37033;49.994;21.992;2022-07-29T10:59:28;99479.02;;;28.74;39.87
50710;BME280;37033;49.994;21.992;2022-07-29T11:02:46;99476.89;;;28.85;40.09
50710;BME280;37033;49.994;21.992;2022-07-29T11:05:55;99474.35;;;28.96;39.31
50710;BME280;37033;49.994;21.992;2022-07-29T11:08:46;99472.85;;;28.97;39.33
50710;BME280;37033;49.994;21.992;2022-07-29T11:11:56;99469.11;;;29.08;39.42
50710;BME280;37033;49.994;21.992;2022-07-29T11:14:59;99467.09;;;29.20;38.81
50710;BME280;37033;49.994;21.992;2022-07-29T11:18:08;99469.28;;;29.21;38.72
50710;BME280;37033;49.994;21.992;2022-07-29T11:20:58;99463.96;;;29.30;38.61
50710;BME280;37033;49.994;21.992;2022-07-29T11:23:48;99460.84;;;29.33;38.19
50710;BME280;37033;49.994;21.992;2022-07-29T11:26:39;99465.58;;;29.42;38.31
50710;BME280;37033;49.994;21.992;2022-07-29T11:29:29;99462.97;;;29.50;38.28
50710;BME280;37033;49.994;21.992;2022-07-29T11:32:22;99455.27;;;29.61;38.41
50710;BME280;37033;49.994;21.992;2022-07-29T11:35:15;99452.77;;;29.60;38.62
50710;BME280;37033;49.994;21.992;2022-07-29T11:38:24;99446.99;;;29.74;38.21
50710;BME280;37033;49.994;21.992;2022-07-29T11:41:26;99443.32;;;29.75;37.88
50710;BME280;37033;49.994;21.992;2022-07-29T11:44:19;99447.49;;;29.79;38.05
50710;BME280;37033;49.994;21.992;2022-07-29T11:47:30;99439.83;;;29.92;37.88
50710;BME280;37033;49.994;21.992;2022-07-29T11:50:29;99439.63;;;29.98;38.21
50710;BME280;37033;49.994;21.992;2022-07-29T11:53:20;99437.10;;;30.22;37.34
50710;BME280;37033;49.994;21.992;2022-07-29T11:56:14;99436.86;;;30.27;37.23
50710;BME280;37033;49.994;21.992;2022-07-29T11:59:07;99433.23;;;30.25;36.72
50710;BME280;37033;49.994;21.992;2022-07-29T12:01:59;99425.55;;;30.30;37.53
50710;BME280;37033;49.994;21.992;2022-07-29T12:04:53;99430.30;;;30.48;36.52
50710;BME280;37033;49.994;21.992;2022-07-29T12:07:43;99431.73;;;30.47;36.83
50710;BME280;37033;49.994;21.992;2022-07-29T12:10:34;99423.95;;;30.67;37.17
50710;BME280;37033;49.994;21.992;2022-07-29T12:13:25;99417.89;;;30.89;36.34
50710;BME280;37033;49.994;21.992;2022-07-29T12:16:37;99415.52;;;30.96;35.84
50710;BME280;37033;49.994;21.992;2022-07-29T12:19:28;99410.81;;;30.98;35.36
50710;BME280;37033;49.994;21.992;2022-07-29T12:22:26;99407.45;;;30.98;35.50
50710;BME280;37033;49.994;21.992;2022-07-29T12:25:16;99410.48;;;30.97;35.27
50710;BME280;37033;49.994;21.992;2022-07-29T12:28:08;99405.35;;;31.02;35.56
50710;BME280;37033;49.994;21.992;2022-07-29T12:30:59;99394.96;;;31.17;35.48
50710;BME280;37033;49.994;21.992;2022-07-29T12:33:54;99385.27;;;31.31;35.08
50710;BME280;37033;49.994;21.992;2022-07-29T12:36:43;99389.07;;;31.39;34.98
50710;BME280;37033;49.994;21.992;2022-07-29T12:39:33;99386.75;;;31.34;34.30
50710;BME280;37033;49.994;21.992;2022-07-29T12:42:26;99380.67;;;31.23;33.75
50710;BME280;37033;49.994;21.992;2022-07-29T12:45:16;99373.61;;;31.23;34.71
50710;BME280;37033;49.994;21.992;2022-07-29T12:48:08;99374.77;;;31.39;34.32
50710;BME280;37033;49.994;21.992;2022-07-29T12:51:00;99377.77;;;31.40;34.10
50710;BME280;37033;49.994;21.992;2022-07-29T12:54:06;99369.92;;;31.42;34.61
50710;BME280;37033;49.994;21.992;2022-07-29T12:57:01;99359.48;;;31.47;34.43
50710;BME280;37033;49.994;21.992;2022-07-29T13:00:06;99352.99;;;31.54;34.54
50710;BME280;37033;49.994;21.992;2022-07-29T13:02:58;99350.40;;;31.60;34.39
50710;BME280;37033;49.994;21.992;2022-07-29T13:05:49;99349.64;;;31.63;34.12
50710;BME280;37033;49.994;21.992;2022-07-29T13:08:39;99350.88;;;31.67;34.08
50710;BME280;37033;49.994;21.992;2022-07-29T13:11:48;99348.94;;;31.79;34.34
50710;BME280;37033;49.994;21.992;2022-07-29T13:14:40;99346.33;;;31.93;34.07
50710;BME280;37033;49.994;21.992;2022-07-29T13:17:41;99348.14;;;32.03;33.68
50710;BME280;37033;49.994;21.992;2022-07-29T13:20:32;99345.21;;;32.08;33.66
50710;BME280;37033;49.994;21.992;2022-07-29T13:23:22;99346.20;;;32.20;33.68
50710;BME280;37033;49.994;21.992;2022-07-29T13:26:13;99348.15;;;32.21;32.62
50710;BME280;37033;49.994;21.992;2022-07-29T13:29:04;99342.30;;;32.14;32.82
50710;BME280;37033;49.994;21.992;2022-07-29T13:31:54;99333.87;;;32.36;33.16
50710;BME280;37033;49.994;21.992;2022-07-29T13:34:46;99334.28;;;32.68;33.29
50710;BME280;37033;49.994;21.992;2022-07-29T13:37:37;99330.59;;;32.80;32.11
50710;BME280;37033;49.994;21.992;2022-07-29T13:40:28;99333.02;;;32.70;31.78
50710;BME280;37033;49.994;21.992;2022-07-29T13:43:18;99330.33;;;32.55;32.24
50710;BME280;37033;49.994;21.992;2022-07-29T13:46:09;99326.46;;;32.44;31.62
50710;BME280;37033;49.994;21.992;2022-07-29T13:48:59;99323.10;;;32.46;32.56
50710;BME280;37033;49.994;21.992;2022-07-29T13:51:51;99318.65;;;32.53;32.72
50710;BME280;37033;49.994;21.992;2022-07-29T13:54:41;99313.55;;;32.69;32.53
50710;BME280;37033;49.994;21.992;2022-07-29T13:57:32;99314.20;;;32.59;32.11
50710;BME280;37033;49.994;21.992;2022-07-29T14:00:23;99308.42;;;32.59;32.17
50710;BME280;37033;49.994;21.992;2022-07-29T14:03:14;99307.11;;;32.57;32.05
50710;BME280;37033;49.994;21.992;2022-07-29T14:06:05;99306.55;;;32.56;32.35
50710;BME280;37033;49.994;21.992;2022-07-29T14:08:55;99303.59;;;32.61;32.08
50710;BME280;37033;49.994;21.992;2022-07-29T14:11:46;99306.04;;;32.65;32.17
50710;BME280;37033;49.994;21.992;2022-07-29T14:14:39;99298.39;;;32.77;32.25
50710;BME280;37033;49.994;21.992;2022-07-29T14:17:30;99296.75;;;32.85;31.70
50710;BME280;37033;49.994;21.992;2022-07-29T14:20:20;99298.04;;;32.72;31.12
50710;BME280;37033;49.994;21.992;2022-07-29T14:23:10;99290.94;;;32.67;31.37
50710;BME280;37033;49.994;21.992;2022-07-29T14:26:01;99284.65;;;32.54;31.45
50710;BME280;37033;49.994;21.992;2022-07-29T14:28:52;99282.70;;;32.60;31.70
50710;BME280;37033;49.994;21.992;2022-07-29T14:31:42;99281.67;;;32.54;30.67
50710;BME280;37033;49.994;21.992;2022-07-29T14:34:32;99276.22;;;32.43;31.13
50710;BME280;37033;49.994;21.992;2022-07-29T14:37:22;99272.95;;;32.47;31.41
50710;BME280;37033;49.994;21.992;2022-07-29T14:40:13;99266.05;;;32.51;31.46
50710;BME280;37033;49.994;21.992;2022-07-29T14:43:03;99263.89;;;32.61;31.17
50710;BME280;37033;49.994;21.992;2022-07-29T14:45:53;99261.75;;;32.66;31.18
50710;BME280;37033;49.994;21.992;2022-07-29T14:48:43;99255.86;;;32.64;31.18
50710;BME280;37033;49.994;21.992;2022-07-29T14:51:34;99250.23;;;32.63;31.16
50710;BME280;37033;49.994;21.992;2022-07-29T14:54:24;99247.10;;;32.64;31.24
50710;BME280;37033;49.994;21.992;2022-07-29T14:57:14;99246.29;;;32.63;30.70
50710;BME280;37033;49.994;21.992;2022-07-29T15:00:07;99245.46;;;32.60;30.88
50710;BME280;37033;49.994;21.992;2022-07-29T15:02:57;99241.42;;;32.57;31.27